sensor_id;sensor_type;location;lat;lon;timestamp;temperature;humidity
21682;DHT22;11002;48.256;10.084;2022-12-11T00:00:21;16.60;25.80
21682;DHT22;11002;48.256;10.084;2022-12-11T00:02:48;16.60;25.80
21682;DHT22;11002;48.256;10.084;2022-12-11T00:05:16;16.60;25.90
21682;DHT22;11002;48.256;10.084;2022-12-11T00:07:43;16.60;25.90
21682;DHT22;11002;48.256;10.084;2022-12-11T00:10:12;16.60;25.90
21682;DHT22;11002;48.256;10.084;2022-12-11T00:12:39;16.60;25.90
21682;DHT22;11002;48.256;10.084;2022-12-11T00:15:07;16.60;25.80
21682;DHT22;11002;48.256;10.084;2022-12-11T00:17:35;16.60;25.80
21682;DHT22;11002;48.256;10.084;2022-12-11T00:20:03;16.60;25.80
21682;DHT22;11002;48.256;10.084;2022-12-11T00:22:31;16.60;25.80
21682;DHT22;11002;48.256;10.084;2022-12-11T00:24:58;16.50;25.80
21682;DHT22;11002;48.256;10.084;2022-12-11T00:27:27;16.50;25.80
21682;DHT22;11002;48.256;10.084;2022-12-11T00:29:54;16.50;25.80
21682;DHT22;11002;48.256;10.084;2022-12-11T00:32:22;16.50;25.80
21682;DHT22;11002;48.256;10.084;2022-12-11T00:34:49;16.60;25.90
21682;DHT22;11002;48.256;10.084;2022-12-11T00:37:16;16.60;25.90
21682;DHT22;11002;48.256;10.084;2022-12-11T00:39:44;16.50;25.70
21682;DHT22;11002;48.256;10.084;2022-12-11T00:42:11;16.60;25.90
21682;DHT22;11002;48.256;10.084;2022-12-11T00:44:40;16.50;25.70
21682;DHT22;11002;48.256;10.084;2022-12-11T00:47:07;16.50;25.70
21682;DHT22;11002;48.256;10.084;2022-12-11T00:49:34;16.50;25.70
21682;DHT22;11002;48.256;10.084;2022-12-11T00:52:02;16.60;25.80
21682;DHT22;11002;48.256;10.084;2022-12-11T00:54:29;16.50;25.80
21682;DHT22;11002;48.256;10.084;2022-12-11T00:56:56;16.50;25.80
21682;DHT22;11002;48.256;10.084;2022-12-11T00:59:24;16.50;25.80
21682;DHT22;11002;48.256;10.084;2022-12-11T01:01:52;16.50;25.80
21682;DHT22;11002;48.256;10.084;2022-12-11T01:04:20;16.50;25.70
21682;DHT22;11002;48.256;10.084;2022-12-11T01:06:48;16.50;25.70
21682;DHT22;11002;48.256;10.084;2022-12-11T01:09:15;16.60;25.80
21682;DHT22;11002;48.256;10.084;2022-12-11T01:12:08;16.50;25.70
21682;DHT22;11002;48.256;10.084;2022-12-11T01:14:35;16.50;25.80
21682;DHT22;11002;48.256;10.084;2022-12-11T01:17:04;16.50;25.70
21682;DHT22;11002;48.256;10.084;2022-12-11T01:19:31;16.50;25.70
21682;DHT22;11002;48.256;10.084;2022-12-11T01:21:59;16.50;25.70
21682;DHT22;11002;48.256;10.084;2022-12-11T01:24:26;16.60;25.80
21682;DHT22;11002;48.256;10.084;2022-12-11T01:26:53;16.50;25.80
21682;DHT22;11002;48.256;10.084;2022-12-11T01:29:21;16.50;25.80
21682;DHT22;11002;48.256;10.084;2022-12-11T01:31:48;16.50;25.70
21682;DHT22;11002;48.256;10.084;2022-12-11T01:34:17;16.50;25.80
21682;DHT22;11002;48.256;10.084;2022-12-11T01:36:44;16.60;25.90
21682;DHT22;11002;48.256;10.084;2022-12-11T01:39:11;16.50;25.70
21682;DHT22;11002;48.256;10.084;2022-12-11T01:41:39;16.50;25.70
21682;DHT22;11002;48.256;10.084;2022-12-11T01:44:07;16.50;25.80
21682;DHT22;11002;48.256;10.084;2022-12-11T01:46:54;16.50;25.80
21682;DHT22;11002;48.256;10.084;2022-12-11T01:49:25;16.50;25.80
21682;DHT22;11002;48.256;10.084;2022-12-11T01:51:56;16.50;25.70
21682;DHT22;11002;48.256;10.084;2022-12-11T01:54:25;16.50;25.70
21682;DHT22;11002;48.256;10.084;2022-12-11T01:56:56;16.50;25.80
21682;DHT22;11002;48.256;10.084;2022-12-11T01:59:27;16.50;25.80
21682;DHT22;11002;48.256;10.084;2022-12-11T02:01:58;16.50;25.80
21682;DHT22;11002;48.256;10.084;2022-12-11T02:04:28;16.50;25.80
21682;DHT22;11002;48.256;10.084;2022-12-11T02:06:56;16.50;25.80
21682;DHT22;11002;48.256;10.084;2022-12-11T02:09:26;16.50;25.60
21682;DHT22;11002;48.256;10.084;2022-12-11T02:12:00;16.50;25.60
21682;DHT22;11002;48.256;10.084;2022-12-11T02:14:33;16.50;25.70
21682;DHT22;11002;48.256;10.084;2022-12-11T02:17:05;16.50;25.70
21682;DHT22;11002;48.256;10.084;2022-12-11T02:19:47;16.50;25.70
21682;DHT22;11002;48.256;10.084;2022-12-11T02:22:27;16.50;25.70
21682;DHT22;11002;48.256;10.084;2022-12-11T02:25:07;16.50;25.70
21682;DHT22;11002;48.256;10.084;2022-12-11T02:27:41;16.50;25.60
21682;DHT22;11002;48.256;10.084;2022-12-11T02:30:12;16.50;25.60
21682;DHT22;11002;48.256;10.084;2022-12-11T02:32:45;16.50;25.60
21682;DHT22;11002;48.256;10.084;2022-12-11T02:35:17;16.50;25.60
21682;DHT22;11002;48.256;10.084;2022-12-11T02:37:47;16.50;25.70
21682;DHT22;11002;48.256;10.084;2022-12-11T02:40:18;16.50;25.70
21682;DHT22;11002;48.256;10.084;2022-12-11T02:42:48;16.50;25.70
21682;DHT22;11002;48.256;10.084;2022-12-11T02:45:18;16.50;25.70
21682;DHT22;11002;48.256;10.084;2022-12-11T02:47:48;16.50;25.70
21682;DHT22;11002;48.256;10.084;2022-12-11T02:50:18;16.50;25.70
21682;DHT22;11002;48.256;10.084;2022-12-11T02:52:47;16.50;25.70
21682;DHT22;11002;48.256;10.084;2022-12-11T02:55:16;16.50;25.70
21682;DHT22;11002;48.256;10.084;2022-12-11T02:57:47;16.50;25.70
21682;DHT22;11002;48.256;10.084;2022-12-11T03:00:18;16.50;25.70
21682;DHT22;11002;48.256;10.084;2022-12-11T03:02:45;16.50;25.70
21682;DHT22;11002;48.256;10.084;2022-12-11T03:05:13;16.50;25.70
21682;DHT22;11002;48.256;10.084;2022-12-11T03:07:43;16.50;25.70
21682;DHT22;11002;48.256;10.084;2022-12-11T03:10:13;16.50;25.70
21682;DHT22;11002;48.256;10.084;2022-12-11T03:12:44;16.50;25.70
21682;DHT22;11002;48.256;10.084;2022-12-11T03:15:15;16.50;25.70
21682;DHT22;11002;48.256;10.084;2022-12-11T03:17:51;16.50;25.70
21682;DHT22;11002;48.256;10.084;2022-12-11T03:20:28;16.50;25.60
21682;DHT22;11002;48.256;10.084;2022-12-11T03:23:03;16.50;25.70
21682;DHT22;11002;48.256;10.084;2022-12-11T03:25:37;16.50;25.70
21682;DHT22;11002;48.256;10.084;2022-12-11T03:28:11;16.50;25.70
21682;DHT22;11002;48.256;10.084;2022-12-11T03:30:40;16.50;25.70
21682;DHT22;11002;48.256;10.084;2022-12-11T03:33:12;16.50;25.70
21682;DHT22;11002;48.256;10.084;2022-12-11T03:35:43;16.50;25.70
21682;DHT22;11002;48.256;10.084;2022-12-11T03:38:14;16.50;25.70
21682;DHT22;11002;48.256;10.084;2022-12-11T03:40:45;16.50;25.60
21682;DHT22;11002;48.256;10.084;2022-12-11T03:43:15;16.50;25.70
21682;DHT22;11002;48.256;10.084;2022-12-11T03:45:44;16.50;25.70
21682;DHT22;11002;48.256;10.084;2022-12-11T03:48:16;16.50;25.70
21682;DHT22;11002;48.256;10.084;2022-12-11T03:50:46;16.50;25.70
21682;DHT22;11002;48.256;10.084;2022-12-11T03:53:15;16.50;25.70
21682;DHT22;11002;48.256;10.084;2022-12-11T03:55:42;16.40;25.60
21682;DHT22;11002;48.256;10.084;2022-12-11T03:58:11;16.40;25.50
21682;DHT22;11002;48.256;10.084;2022-12-11T04:00:38;16.50;25.60
21682;DHT22;11002;48.256;10.084;2022-12-11T04:03:05;16.50;25.60
21682;DHT22;11002;48.256;10.084;2022-12-11T04:05:41;16.50;25.60
21682;DHT22;11002;48.256;10.084;2022-12-11T04:08:09;16.40;25.60
21682;DHT22;11002;48.256;10.084;2022-12-11T04:10:37;16.40;25.60
21682;DHT22;11002;48.256;10.084;2022-12-11T04:13:05;16.40;25.60
21682;DHT22;11002;48.256;10.084;2022-12-11T04:15:32;16.40;25.60
21682;DHT22;11002;48.256;10.084;2022-12-11T04:17:58;16.40;25.60
21682;DHT22;11002;48.256;10.084;2022-12-11T04:20:44;16.40;25.60
21682;DHT22;11002;48.256;10.084;2022-12-11T04:23:29;16.40;25.60
21682;DHT22;11002;48.256;10.084;2022-12-11T04:26:25;16.50;25.60
21682;DHT22;11002;48.256;10.084;2022-12-11T04:28:52;16.40;25.60
21682;DHT22;11002;48.256;10.084;2022-12-11T04:31:21;16.40;25.60
21682;DHT22;11002;48.256;10.084;2022-12-11T04:33:48;16.40;25.60
21682;DHT22;11002;48.256;10.084;2022-12-11T04:36:17;16.40;25.60
21682;DHT22;11002;48.256;10.084;2022-12-11T04:38:44;16.40;25.50
21682;DHT22;11002;48.256;10.084;2022-12-11T04:41:13;16.40;25.50
21682;DHT22;11002;48.256;10.084;2022-12-11T04:43:41;16.40;25.50
21682;DHT22;11002;48.256;10.084;2022-12-11T04:46:11;16.40;25.60
21682;DHT22;11002;48.256;10.084;2022-12-11T04:48:39;16.40;25.50
21682;DHT22;11002;48.256;10.084;2022-12-11T04:51:07;16.40;25.50
21682;DHT22;11002;48.256;10.084;2022-12-11T04:53:37;16.40;25.50
21682;DHT22;11002;48.256;10.084;2022-12-11T04:56:04;16.40;25.60
21682;DHT22;11002;48.256;10.084;2022-12-11T04:58:32;16.40;25.50
21682;DHT22;11002;48.256;10.084;2022-12-11T05:01:05;16.40;25.50
21682;DHT22;11002;48.256;10.084;2022-12-11T05:03:32;16.40;25.50
21682;DHT22;11002;48.256;10.084;2022-12-11T05:06:00;16.40;25.60
21682;DHT22;11002;48.256;10.084;2022-12-11T05:08:27;16.40;25.60
21682;DHT22;11002;48.256;10.084;2022-12-11T05:10:57;16.40;25.60
21682;DHT22;11002;48.256;10.084;2022-12-11T05:13:26;16.40;25.50
21682;DHT22;11002;48.256;10.084;2022-12-11T05:15:53;16.40;25.50
21682;DHT22;11002;48.256;10.084;2022-12-11T05:18:21;16.40;25.50
21682;DHT22;11002;48.256;10.084;2022-12-11T05:20:54;16.40;25.50
21682;DHT22;11002;48.256;10.084;2022-12-11T05:23:21;16.40;25.50
21682;DHT22;11002;48.256;10.084;2022-12-11T05:25:51;16.40;25.50
21682;DHT22;11002;48.256;10.084;2022-12-11T05:28:20;16.40;25.50
21682;DHT22;11002;48.256;10.084;2022-12-11T05:30:47;16.40;25.50
21682;DHT22;11002;48.256;10.084;2022-12-11T05:33:15;16.40;25.60
21682;DHT22;11002;48.256;10.084;2022-12-11T05:35:46;16.40;25.60
21682;DHT22;11002;48.256;10.084;2022-12-11T05:38:13;16.40;25.50
21682;DHT22;11002;48.256;10.084;2022-12-11T05:40:41;16.40;25.50
21682;DHT22;11002;48.256;10.084;2022-12-11T05:43:08;16.40;25.50
21682;DHT22;11002;48.256;10.084;2022-12-11T05:45:37;16.40;25.40
21682;DHT22;11002;48.256;10.084;2022-12-11T05:48:05;16.40;25.40
21682;DHT22;11002;48.256;10.084;2022-12-11T05:50:32;16.40;25.40
21682;DHT22;11002;48.256;10.084;2022-12-11T05:52:59;16.40;25.40
21682;DHT22;11002;48.256;10.084;2022-12-11T05:55:27;16.40;25.40
21682;DHT22;11002;48.256;10.084;2022-12-11T05:57:54;16.40;25.40
21682;DHT22;11002;48.256;10.084;2022-12-11T06:00:22;16.40;25.40
21682;DHT22;11002;48.256;10.084;2022-12-11T06:02:50;16.40;25.40
21682;DHT22;11002;48.256;10.084;2022-12-11T06:05:18;16.40;25.40
21682;DHT22;11002;48.256;10.084;2022-12-11T06:07:45;16.40;25.40
21682;DHT22;11002;48.256;10.084;2022-12-11T06:10:12;16.40;25.60
21682;DHT22;11002;48.256;10.084;2022-12-11T06:12:40;16.40;25.40
21682;DHT22;11002;48.256;10.084;2022-12-11T06:15:08;16.40;25.30
21682;DHT22;11002;48.256;10.084;2022-12-11T06:17:35;16.40;25.40
21682;DHT22;11002;48.256;10.084;2022-12-11T06:20:07;16.40;25.40
21682;DHT22;11002;48.256;10.084;2022-12-11T06:22:35;16.40;25.40
21682;DHT22;11002;48.256;10.084;2022-12-11T06:25:02;16.40;25.30
21682;DHT22;11002;48.256;10.084;2022-12-11T06:27:30;16.40;25.30
21682;DHT22;11002;48.256;10.084;2022-12-11T06:29:57;16.40;25.40
21682;DHT22;11002;48.256;10.084;2022-12-11T06:32:24;16.40;25.30
21682;DHT22;11002;48.256;10.084;2022-12-11T06:34:52;16.40;25.20
21682;DHT22;11002;48.256;10.084;2022-12-11T06:37:21;16.40;25.20
21682;DHT22;11002;48.256;10.084;2022-12-11T06:39:48;16.40;25.20
21682;DHT22;11002;48.256;10.084;2022-12-11T06:42:15;16.40;25.20
21682;DHT22;11002;48.256;10.084;2022-12-11T06:44:43;16.40;25.10
21682;DHT22;11002;48.256;10.084;2022-12-11T06:47:10;16.40;25.20
21682;DHT22;11002;48.256;10.084;2022-12-11T06:49:37;16.40;25.20
21682;DHT22;11002;48.256;10.084;2022-12-11T06:52:05;16.50;25.20
21682;DHT22;11002;48.256;10.084;2022-12-11T06:54:33;16.40;25.10
21682;DHT22;11002;48.256;10.084;2022-12-11T06:57:01;16.40;25.00
21682;DHT22;11002;48.256;10.084;2022-12-11T06:59:28;16.40;25.00
21682;DHT22;11002;48.256;10.084;2022-12-11T07:01:55;16.40;25.10
21682;DHT22;11002;48.256;10.084;2022-12-11T07:04:23;16.50;25.20
21682;DHT22;11002;48.256;10.084;2022-12-11T07:06:52;16.40;25.10
21682;DHT22;11002;48.256;10.084;2022-12-11T07:09:19;16.40;25.10
21682;DHT22;11002;48.256;10.084;2022-12-11T07:11:50;16.40;25.10
21682;DHT22;11002;48.256;10.084;2022-12-11T07:14:17;16.40;25.20
21682;DHT22;11002;48.256;10.084;2022-12-11T07:16:45;16.40;25.20
21682;DHT22;11002;48.256;10.084;2022-12-11T07:19:12;16.40;25.20
21682;DHT22;11002;48.256;10.084;2022-12-11T07:21:40;16.40;25.10
21682;DHT22;11002;48.256;10.084;2022-12-11T07:24:07;16.50;25.00
21682;DHT22;11002;48.256;10.084;2022-12-11T07:26:34;16.50;25.10
21682;DHT22;11002;48.256;10.084;2022-12-11T07:29:03;16.40;25.20
21682;DHT22;11002;48.256;10.084;2022-12-11T07:31:31;16.50;25.20
21682;DHT22;11002;48.256;10.084;2022-12-11T07:34:00;16.50;25.20
21682;DHT22;11002;48.256;10.084;2022-12-11T07:36:29;16.50;25.20
21682;DHT22;11002;48.256;10.084;2022-12-11T07:38:56;16.50;25.20
21682;DHT22;11002;48.256;10.084;2022-12-11T07:41:24;16.50;25.10
21682;DHT22;11002;48.256;10.084;2022-12-11T07:43:53;16.50;25.00
21682;DHT22;11002;48.256;10.084;2022-12-11T07:46:23;16.50;25.60
21682;DHT22;11002;48.256;10.084;2022-12-11T07:48:51;16.50;25.00
21682;DHT22;11002;48.256;10.084;2022-12-11T07:51:20;16.50;25.00
21682;DHT22;11002;48.256;10.084;2022-12-11T07:53:52;16.50;25.10
21682;DHT22;11002;48.256;10.084;2022-12-11T07:56:20;16.50;25.10
21682;DHT22;11002;48.256;10.084;2022-12-11T07:58:47;16.50;25.00
21682;DHT22;11002;48.256;10.084;2022-12-11T08:01:16;16.50;25.00
21682;DHT22;11002;48.256;10.084;2022-12-11T08:03:45;16.50;25.10
21682;DHT22;11002;48.256;10.084;2022-12-11T08:06:13;16.50;25.10
21682;DHT22;11002;48.256;10.084;2022-12-11T08:08:41;16.50;25.10
21682;DHT22;11002;48.256;10.084;2022-12-11T08:11:11;16.50;25.10
21682;DHT22;11002;48.256;10.084;2022-12-11T08:13:39;16.50;25.10
21682;DHT22;11002;48.256;10.084;2022-12-11T08:16:08;16.50;25.00
21682;DHT22;11002;48.256;10.084;2022-12-11T08:18:36;16.50;24.90
21682;DHT22;11002;48.256;10.084;2022-12-11T08:21:06;16.50;25.00
21682;DHT22;11002;48.256;10.084;2022-12-11T08:23:34;16.50;25.00
21682;DHT22;11002;48.256;10.084;2022-12-11T08:26:01;16.50;25.10
21682;DHT22;11002;48.256;10.084;2022-12-11T08:28:29;16.50;25.10
21682;DHT22;11002;48.256;10.084;2022-12-11T08:30:57;16.50;25.20
21682;DHT22;11002;48.256;10.084;2022-12-11T08:33:25;16.50;25.20
21682;DHT22;11002;48.256;10.084;2022-12-11T08:35:53;16.50;25.10
21682;DHT22;11002;48.256;10.084;2022-12-11T08:38:21;16.50;25.20
21682;DHT22;11002;48.256;10.084;2022-12-11T08:40:49;16.50;25.10
21682;DHT22;11002;48.256;10.084;2022-12-11T08:43:16;16.50;25.20
21682;DHT22;11002;48.256;10.084;2022-12-11T08:45:44;16.50;25.20
21682;DHT22;11002;48.256;10.084;2022-12-11T08:48:12;16.50;25.20
21682;DHT22;11002;48.256;10.084;2022-12-11T08:50:39;16.50;25.20
21682;DHT22;11002;48.256;10.084;2022-12-11T08:53:07;16.50;25.20
21682;DHT22;11002;48.256;10.084;2022-12-11T08:55:35;16.50;25.20
21682;DHT22;11002;48.256;10.084;2022-12-11T08:58:03;16.50;25.20
21682;DHT22;11002;48.256;10.084;2022-12-11T09:00:30;16.50;25.10
21682;DHT22;11002;48.256;10.084;2022-12-11T09:02:57;16.50;25.00
21682;DHT22;11002;48.256;10.084;2022-12-11T09:05:25;16.50;25.10
21682;DHT22;11002;48.256;10.084;2022-12-11T09:07:52;16.50;25.20
21682;DHT22;11002;48.256;10.084;2022-12-11T09:10:19;16.50;25.10
21682;DHT22;11002;48.256;10.084;2022-12-11T09:12:48;16.50;25.00
21682;DHT22;11002;48.256;10.084;2022-12-11T09:15:16;16.50;25.10
21682;DHT22;11002;48.256;10.084;2022-12-11T09:17:43;16.50;25.00
21682;DHT22;11002;48.256;10.084;2022-12-11T09:20:11;16.50;25.10
21682;DHT22;11002;48.256;10.084;2022-12-11T09:22:38;16.50;25.10
21682;DHT22;11002;48.256;10.084;2022-12-11T09:25:08;16.50;25.10
21682;DHT22;11002;48.256;10.084;2022-12-11T09:27:35;16.50;25.10
21682;DHT22;11002;48.256;10.084;2022-12-11T09:30:05;16.50;25.10
21682;DHT22;11002;48.256;10.084;2022-12-11T09:32:33;16.50;24.70
21682;DHT22;11002;48.256;10.084;2022-12-11T09:35:00;16.40;22.80
21682;DHT22;11002;48.256;10.084;2022-12-11T09:37:27;16.40;21.00
21682;DHT22;11002;48.256;10.084;2022-12-11T09:39:55;16.30;20.90
21682;DHT22;11002;48.256;10.084;2022-12-11T09:42:28;16.30;20.10
21682;DHT22;11002;48.256;10.084;2022-12-11T09:45:00;16.20;19.80
21682;DHT22;11002;48.256;10.084;2022-12-11T09:47:34;16.10;19.50
21682;DHT22;11002;48.256;10.084;2022-12-11T09:50:11;16.10;19.30
21682;DHT22;11002;48.256;10.084;2022-12-11T09:52:51;16.10;19.00
21682;DHT22;11002;48.256;10.084;2022-12-11T09:55:21;16.00;18.80
21682;DHT22;11002;48.256;10.084;2022-12-11T09:57:56;16.00;18.60
21682;DHT22;11002;48.256;10.084;2022-12-11T10:00:28;16.00;18.40
21682;DHT22;11002;48.256;10.084;2022-12-11T10:06:16;15.90;18.00
21682;DHT22;11002;48.256;10.084;2022-12-11T10:08:54;15.90;17.80
21682;DHT22;11002;48.256;10.084;2022-12-11T10:11:44;15.90;17.70
21682;DHT22;11002;48.256;10.084;2022-12-11T10:14:19;15.80;17.60
21682;DHT22;11002;48.256;10.084;2022-12-11T10:16:51;15.80;17.30
21682;DHT22;11002;48.256;10.084;2022-12-11T10:19:23;15.80;17.40
21682;DHT22;11002;48.256;10.084;2022-12-11T10:21:54;15.80;17.70
21682;DHT22;11002;48.256;10.084;2022-12-11T10:24:28;15.80;18.30
21682;DHT22;11002;48.256;10.084;2022-12-11T10:27:12;15.80;18.60
21682;DHT22;11002;48.256;10.084;2022-12-11T10:29:40;15.80;18.70
21682;DHT22;11002;48.256;10.084;2022-12-11T10:32:18;15.80;18.90
21682;DHT22;11002;48.256;10.084;2022-12-11T10:34:48;15.80;19.00
21682;DHT22;11002;48.256;10.084;2022-12-11T10:37:19;15.80;19.10
21682;DHT22;11002;48.256;10.084;2022-12-11T10:39:47;15.90;19.40
21682;DHT22;11002;48.256;10.084;2022-12-11T10:42:18;15.90;19.70
21682;DHT22;11002;48.256;10.084;2022-12-11T10:44:57;15.90;20.00
21682;DHT22;11002;48.256;10.084;2022-12-11T10:47:25;15.90;20.20
21682;DHT22;11002;48.256;10.084;2022-12-11T10:49:54;15.90;20.30
21682;DHT22;11002;48.256;10.084;2022-12-11T10:52:26;16.00;20.70
21682;DHT22;11002;48.256;10.084;2022-12-11T10:54:57;16.00;20.70
21682;DHT22;11002;48.256;10.084;2022-12-11T10:57:31;15.90;20.70
21682;DHT22;11002;48.256;10.084;2022-12-11T10:59:59;16.00;20.70
21682;DHT22;11002;48.256;10.084;2022-12-11T11:02:29;16.00;20.70
21682;DHT22;11002;48.256;10.084;2022-12-11T11:04:59;16.00;20.70
21682;DHT22;11002;48.256;10.084;2022-12-11T11:07:29;16.00;20.70
21682;DHT22;11002;48.256;10.084;2022-12-11T11:10:15;16.00;20.70
21682;DHT22;11002;48.256;10.084;2022-12-11T11:12:43;16.00;20.70
21682;DHT22;11002;48.256;10.084;2022-12-11T11:15:13;16.00;20.70
21682;DHT22;11002;48.256;10.084;2022-12-11T11:17:44;16.00;20.70
21682;DHT22;11002;48.256;10.084;2022-12-11T11:20:14;16.10;20.80
21682;DHT22;11002;48.256;10.084;2022-12-11T11:22:46;16.10;20.80
21682;DHT22;11002;48.256;10.084;2022-12-11T11:25:19;16.10;20.80
21682;DHT22;11002;48.256;10.084;2022-12-11T11:27:52;16.10;20.80
21682;DHT22;11002;48.256;10.084;2022-12-11T11:30:22;16.10;20.80
21682;DHT22;11002;48.256;10.084;2022-12-11T11:32:51;16.10;20.80
21682;DHT22;11002;48.256;10.084;2022-12-11T11:35:21;16.10;20.80
21682;DHT22;11002;48.256;10.084;2022-12-11T11:37:59;16.10;20.80
21682;DHT22;11002;48.256;10.084;2022-12-11T11:40:30;16.10;21.00
21682;DHT22;11002;48.256;10.084;2022-12-11T11:43:06;16.10;21.30
21682;DHT22;11002;48.256;10.084;2022-12-11T11:45:40;16.20;21.30
21682;DHT22;11002;48.256;10.084;2022-12-11T11:48:19;16.20;21.20
21682;DHT22;11002;48.256;10.084;2022-12-11T11:50:49;16.20;21.00
21682;DHT22;11002;48.256;10.084;2022-12-11T11:53:23;16.20;20.90
21682;DHT22;11002;48.256;10.084;2022-12-11T11:56:00;16.20;20.90
21682;DHT22;11002;48.256;10.084;2022-12-11T11:58:36;16.20;20.90
21682;DHT22;11002;48.256;10.084;2022-12-11T12:01:12;16.20;20.90
21682;DHT22;11002;48.256;10.084;2022-12-11T12:03:41;16.20;21.00
21682;DHT22;11002;48.256;10.084;2022-12-11T12:06:15;16.20;21.00
21682;DHT22;11002;48.256;10.084;2022-12-11T12:09:00;16.20;20.90
21682;DHT22;11002;48.256;10.084;2022-12-11T12:11:38;16.20;20.90
21682;DHT22;11002;48.256;10.084;2022-12-11T12:14:13;16.20;20.90
21682;DHT22;11002;48.256;10.084;2022-12-11T12:16:48;16.20;20.90
21682;DHT22;11002;48.256;10.084;2022-12-11T12:19:30;16.20;20.90
21682;DHT22;11002;48.256;10.084;2022-12-11T12:22:08;16.20;21.00
21682;DHT22;11002;48.256;10.084;2022-12-11T12:24:47;16.20;20.90
21682;DHT22;11002;48.256;10.084;2022-12-11T12:27:20;16.20;21.50
21682;DHT22;11002;48.256;10.084;2022-12-11T12:29:54;16.20;21.40
21682;DHT22;11002;48.256;10.084;2022-12-11T12:32:31;16.20;21.10
21682;DHT22;11002;48.256;10.084;2022-12-11T12:35:09;16.20;20.90
21682;DHT22;11002;48.256;10.084;2022-12-11T12:37:56;16.20;20.90
21682;DHT22;11002;48.256;10.084;2022-12-11T12:40:31;16.20;20.80
21682;DHT22;11002;48.256;10.084;2022-12-11T12:43:07;16.20;20.80
21682;DHT22;11002;48.256;10.084;2022-12-11T12:45:45;16.20;20.90
21682;DHT22;11002;48.256;10.084;2022-12-11T12:48:15;16.20;20.90
21682;DHT22;11002;48.256;10.084;2022-12-11T12:50:45;16.20;20.90
21682;DHT22;11002;48.256;10.084;2022-12-11T12:53:17;16.20;20.90
21682;DHT22;11002;48.256;10.084;2022-12-11T12:55:47;16.20;20.90
21682;DHT22;11002;48.256;10.084;2022-12-11T12:58:25;16.20;20.80
21682;DHT22;11002;48.256;10.084;2022-12-11T13:00:54;16.20;21.00
21682;DHT22;11002;48.256;10.084;2022-12-11T13:03:35;16.20;20.90
21682;DHT22;11002;48.256;10.084;2022-12-11T13:06:04;16.20;20.90
21682;DHT22;11002;48.256;10.084;2022-12-11T13:08:37;16.20;20.90
21682;DHT22;11002;48.256;10.084;2022-12-11T13:11:08;16.20;20.90
21682;DHT22;11002;48.256;10.084;2022-12-11T13:13:38;16.20;20.90
21682;DHT22;11002;48.256;10.084;2022-12-11T13:16:20;16.20;20.90
21682;DHT22;11002;48.256;10.084;2022-12-11T13:18:49;16.20;20.90
21682;DHT22;11002;48.256;10.084;2022-12-11T13:21:29;16.20;20.90
21682;DHT22;11002;48.256;10.084;2022-12-11T13:24:13;16.20;20.80
21682;DHT22;11002;48.256;10.084;2022-12-11T13:26:43;16.20;20.80
21682;DHT22;11002;48.256;10.084;2022-12-11T13:29:30;16.20;20.90
21682;DHT22;11002;48.256;10.084;2022-12-11T13:31:59;16.20;20.90
21682;DHT22;11002;48.256;10.084;2022-12-11T13:34:31;16.20;20.90
21682;DHT22;11002;48.256;10.084;2022-12-11T13:37:00;16.20;20.80
21682;DHT22;11002;48.256;10.084;2022-12-11T13:39:30;16.10;20.80
21682;DHT22;11002;48.256;10.084;2022-12-11T13:42:02;16.20;20.90
21682;DHT22;11002;48.256;10.084;2022-12-11T13:44:33;16.20;20.90
21682;DHT22;11002;48.256;10.084;2022-12-11T13:47:04;16.20;20.80
21682;DHT22;11002;48.256;10.084;2022-12-11T13:49:35;16.10;20.80
21682;DHT22;11002;48.256;10.084;2022-12-11T13:52:04;16.10;20.80
21682;DHT22;11002;48.256;10.084;2022-12-11T13:54:33;16.10;20.80
21682;DHT22;11002;48.256;10.084;2022-12-11T13:57:14;16.20;20.90
21682;DHT22;11002;48.256;10.084;2022-12-11T13:59:45;16.10;20.80
21682;DHT22;11002;48.256;10.084;2022-12-11T14:02:18;16.10;20.80
21682;DHT22;11002;48.256;10.084;2022-12-11T14:04:49;16.10;20.80
21682;DHT22;11002;48.256;10.084;2022-12-11T14:07:22;16.20;20.90
21682;DHT22;11002;48.256;10.084;2022-12-11T14:10:00;16.10;20.80
21682;DHT22;11002;48.256;10.084;2022-12-11T14:12:31;16.10;20.80
21682;DHT22;11002;48.256;10.084;2022-12-11T14:14:59;16.10;20.80
21682;DHT22;11002;48.256;10.084;2022-12-11T14:17:31;16.10;20.80
21682;DHT22;11002;48.256;10.084;2022-12-11T14:20:03;16.10;20.80
21682;DHT22;11002;48.256;10.084;2022-12-11T14:22:32;16.10;20.80
21682;DHT22;11002;48.256;10.084;2022-12-11T14:25:01;16.10;20.80
21682;DHT22;11002;48.256;10.084;2022-12-11T14:27:31;16.10;20.80
21682;DHT22;11002;48.256;10.084;2022-12-11T14:30:09;16.10;20.80
21682;DHT22;11002;48.256;10.084;2022-12-11T14:32:42;16.10;20.80
21682;DHT22;11002;48.256;10.084;2022-12-11T14:35:20;16.10;20.80
21682;DHT22;11002;48.256;10.084;2022-12-11T14:37:49;16.10;20.80
21682;DHT22;11002;48.256;10.084;2022-12-11T14:40:19;16.10;20.80
21682;DHT22;11002;48.256;10.084;2022-12-11T14:42:52;16.10;20.80
21682;DHT22;11002;48.256;10.084;2022-12-11T14:45:26;16.10;20.80
21682;DHT22;11002;48.256;10.084;2022-12-11T14:47:56;16.10;20.80
21682;DHT22;11002;48.256;10.084;2022-12-11T14:50:35;16.10;20.80
21682;DHT22;11002;48.256;10.084;2022-12-11T14:53:07;16.10;20.80
21682;DHT22;11002;48.256;10.084;2022-12-11T14:55:37;16.10;20.80
21682;DHT22;11002;48.256;10.084;2022-12-11T14:58:16;16.10;20.80
21682;DHT22;11002;48.256;10.084;2022-12-11T15:00:56;16.20;20.80
21682;DHT22;11002;48.256;10.084;2022-12-11T15:03:24;16.10;20.80
21682;DHT22;11002;48.256;10.084;2022-12-11T15:05:57;16.10;20.80
21682;DHT22;11002;48.256;10.084;2022-12-11T15:08:26;16.10;20.80
21682;DHT22;11002;48.256;10.084;2022-12-11T15:11:01;16.10;20.80
21682;DHT22;11002;48.256;10.084;2022-12-11T15:13:31;16.10;20.80
21682;DHT22;11002;48.256;10.084;2022-12-11T15:15:59;16.10;20.80
21682;DHT22;11002;48.256;10.084;2022-12-11T15:18:29;16.10;20.80
21682;DHT22;11002;48.256;10.084;2022-12-11T15:20:59;16.20;20.90
21682;DHT22;11002;48.256;10.084;2022-12-11T15:23:27;16.10;20.80
21682;DHT22;11002;48.256;10.084;2022-12-11T15:25:57;16.20;20.90
21682;DHT22;11002;48.256;10.084;2022-12-11T15:28:27;16.20;20.90
21682;DHT22;11002;48.256;10.084;2022-12-11T15:30:58;16.20;20.90
21682;DHT22;11002;48.256;10.084;2022-12-11T15:33:26;16.20;20.90
21682;DHT22;11002;48.256;10.084;2022-12-11T15:36:00;16.20;20.80
21682;DHT22;11002;48.256;10.084;2022-12-11T15:38:33;16.20;20.90